Time;durP1;ratioP1;P1;durP2;ratioP2;P2;SDS_P1;SDS_P2;PMS_P1;PMS_P2;Temp;Humidity;BMP_temperature;BMP_pressure;BME280_temperature;BME280_humidity;BME280_pressure;Samples;Min_cycle;Max_cycle;Signal;HPM_P1;HPM_P2
2021/08/22 00:01:57;;;;;;;8.57;6.03;;;;;;;14.60;99.92;100923.84;5088872;28;20647;-74
2021/08/22 00:04:23;;;;;;;7.37;6.43;;;;;;;14.55;99.55;100918.75;5080985;28;20203;-74
2021/08/22 00:06:49;;;;;;;6.80;6.10;;;;;;;14.54;99.82;100916.16;5094905;28;20218;-74
2021/08/22 00:09:16;;;;;;;7.13;6.43;;;;;;;14.55;100.00;100915.28;5093375;28;20214;-74
2021/08/22 00:11:44;;;;;;;8.37;6.33;;;;;;;14.48;100.00;100919.03;5082975;28;20654;-74
2021/08/22 00:14:10;;;;;;;7.40;6.10;;;;;;;14.44;100.00;100912.19;5076366;28;20198;-74
2021/08/22 00:16:37;;;;;;;7.73;6.73;;;;;;;14.45;100.00;100906.88;5089154;28;20232;-74
2021/08/22 00:19:03;;;;;;;8.63;7.00;;;;;;;14.36;100.00;100905.47;5080910;28;20209;-74
2021/08/22 00:21:29;;;;;;;9.07;6.63;;;;;;;14.35;100.00;100906.38;5089438;28;20225;-74
2021/08/22 00:23:56;;;;;;;8.23;6.57;;;;;;;14.30;100.00;100910.94;5090358;28;20210;-74
2021/08/22 00:26:22;;;;;;;10.80;6.87;;;;;;;14.27;100.00;100910.22;5088826;28;20221;-74
2021/08/22 00:28:50;;;;;;;8.27;6.37;;;;;;;14.28;100.00;100904.03;5099147;28;20233;-74
2021/08/22 00:31:16;;;;;;;8.07;6.60;;;;;;;14.25;100.00;100902.41;5088873;28;20655;-74
2021/08/22 00:33:43;;;;;;;7.83;6.93;;;;;;;14.23;100.00;100901.59;5088874;28;20630;-74
2021/08/22 00:36:10;;;;;;;8.70;6.93;;;;;;;14.25;100.00;100897.16;5088857;28;20614;-74
2021/08/22 00:38:36;;;;;;;9.00;7.67;;;;;;;14.32;100.00;100903.03;5084849;28;20617;-74
2021/08/22 00:41:05;;;;;;;10.50;8.67;;;;;;;14.39;100.00;100897.47;5093089;28;20208;-74
2021/08/22 00:43:32;;;;;;;8.67;7.27;;;;;;;14.43;100.00;100887.72;5088821;28;20202;-74
2021/08/22 00:46:00;;;;;;;10.77;7.77;;;;;;;14.48;100.00;100885.78;5089491;28;20296;-74
2021/08/22 00:48:28;;;;;;;9.33;8.00;;;;;;;14.55;100.00;100878.53;5083832;28;20205;-74
2021/08/22 00:50:55;;;;;;;11.63;8.27;;;;;;;14.57;100.00;100882.81;5091978;28;20225;-74
2021/08/22 00:53:22;;;;;;;9.80;8.03;;;;;;;14.54;100.00;100876.81;5084330;28;20300;-74
2021/08/22 00:55:49;;;;;;;10.13;8.03;;;;;;;14.52;100.00;100876.88;5086428;28;20604;-74
2021/08/22 00:58:16;;;;;;;9.67;7.90;;;;;;;14.50;100.00;100870.84;5095402;28;20592;-74
2021/08/22 01:00:42;;;;;;;9.90;8.23;;;;;;;14.48;100.00;100862.19;5090156;28;20387;-74
2021/08/22 01:03:16;;;;;;;9.97;7.77;;;;;;;14.46;100.00;100864.00;5090943;28;20455;-74
2021/08/22 01:05:50;;;;;;;11.20;8.17;;;;;;;14.47;100.00;100860.44;5083234;28;20295;-74
2021/08/22 01:08:24;;;;;;;9.93;7.87;;;;;;;14.48;100.00;100861.31;5093386;28;20601;-74
2021/08/22 01:10:56;;;;;;;9.40;7.90;;;;;;;14.46;100.00;100864.00;5087550;28;20448;-74
2021/08/22 01:13:26;;;;;;;8.80;7.87;;;;;;;14.45;100.00;100862.28;5093921;28;20401;-74
2021/08/22 01:15:57;;;;;;;10.23;8.00;;;;;;;14.48;100.00;100863.94;5095568;28;20208;-74
2021/08/22 01:18:28;;;;;;;9.77;7.97;;;;;;;14.41;100.00;100863.31;5092532;28;20736;-74
2021/08/22 01:21:03;;;;;;;9.43;7.83;;;;;;;14.41;100.00;100850.22;5095895;28;20194;-74
2021/08/22 01:23:31;;;;;;;10.00;8.23;;;;;;;14.41;100.00;100858.09;5082887;28;20198;-74
2021/08/22 01:25:58;;;;;;;11.83;8.37;;;;;;;14.45;100.00;100859.66;5095358;28;20228;-74
2021/08/22 01:28:25;;;;;;;9.17;8.03;;;;;;;14.47;100.00;100854.34;5084188;28;20198;-74
2021/08/22 01:30:56;;;;;;;10.43;8.10;;;;;;;14.45;100.00;100849.16;5095261;28;20469;-74
2021/08/22 01:33:23;;;;;;;9.37;7.93;;;;;;;14.44;100.00;100847.47;5086711;28;20210;-74
2021/08/22 01:35:50;;;;;;;10.63;8.60;;;;;;;14.43;100.00;100844.91;5087942;28;20198;-74
2021/08/22 01:38:17;;;;;;;10.63;8.23;;;;;;;14.39;100.00;100841.56;5086325;28;20225;-74
2021/08/22 01:40:46;;;;;;;11.07;8.17;;;;;;;14.34;100.00;100844.34;5088937;28;20642;-74
2021/08/22 01:43:14;;;;;;;10.03;8.43;;;;;;;14.29;100.00;100853.31;5085491;28;20263;-74
2021/08/22 01:45:41;;;;;;;8.37;7.27;;;;;;;14.30;100.00;100849.75;5085618;28;20696;-74
2021/08/22 01:48:08;;;;;;;10.37;8.17;;;;;;;14.25;100.00;100843.81;5095983;28;20222;-74
2021/08/22 01:50:36;;;;;;;9.57;7.90;;;;;;;14.19;100.00;100848.41;5086992;28;20209;-74
2021/08/22 01:53:05;;;;;;;9.13;8.10;;;;;;;14.14;100.00;100842.50;5091125;28;20209;-74
2021/08/22 01:55:32;;;;;;;9.33;8.10;;;;;;;14.12;100.00;100848.69;5087019;28;20225;-74
2021/08/22 01:57:58;;;;;;;9.47;7.97;;;;;;;14.07;100.00;100845.38;5095237;28;20313;-74
2021/08/22 02:00:24;;;;;;;9.40;7.77;;;;;;;14.09;100.00;100846.16;5101623;28;20212;-74
2021/08/22 02:02:56;;;;;;;9.43;7.87;;;;;;;14.01;100.00;100839.44;5097708;28;20201;-74
2021/08/22 02:05:23;;;;;;;12.13;8.60;;;;;;;13.99;100.00;100838.66;5098368;28;20211;-74
2021/08/22 02:07:52;;;;;;;11.70;9.00;;;;;;;13.98;100.00;100841.31;5093270;28;20228;-74
2021/08/22 02:10:24;;;;;;;9.87;7.53;;;;;;;13.98;100.00;100830.84;5091811;28;20205;-74
2021/08/22 02:12:55;;;;;;;9.67;7.83;;;;;;;13.94;100.00;100839.75;5092290;28;20228;-74
2021/08/22 02:15:28;;;;;;;11.73;8.20;;;;;;;13.90;100.00;100841.63;5091834;28;20288;-74
2021/08/22 02:17:59;;;;;;;10.07;7.90;;;;;;;13.91;100.00;100843.34;5091400;28;20233;-74
2021/08/22 02:20:26;;;;;;;11.60;9.13;;;;;;;13.87;100.00;100838.25;5091947;28;20208;-74
2021/08/22 02:22:55;;;;;;;10.97;8.77;;;;;;;13.86;100.00;100833.91;5092162;28;20210;-74
2021/08/22 02:25:22;;;;;;;11.03;9.37;;;;;;;13.84;100.00;100833.97;5090697;28;20211;-74
2021/08/22 02:27:49;;;;;;;10.27;8.50;;;;;;;13.81;100.00;100834.09;5102156;28;20243;-74
2021/08/22 02:30:16;;;;;;;13.10;8.87;;;;;;;13.84;100.00;100831.34;5087092;28;20471;-74
2021/08/22 02:32:42;;;;;;;9.63;8.10;;;;;;;13.92;100.00;100825.84;5094546;28;20233;-74
2021/08/22 02:35:10;;;;;;;11.57;9.20;;;;;;;13.87;100.00;100818.13;5090123;28;20205;-74
2021/08/22 02:37:36;;;;;;;12.43;8.87;;;;;;;13.87;100.00;100817.28;5092316;28;20747;-74
2021/08/22 02:40:05;;;;;;;11.60;8.87;;;;;;;13.89;100.00;100811.06;5098174;28;20990;-74
2021/08/22 02:42:32;;;;;;;12.17;9.63;;;;;;;13.90;100.00;100801.47;5091335;28;20360;-74
2021/08/22 02:44:58;;;;;;;10.43;9.13;;;;;;;13.90;100.00;100806.69;5096497;28;20217;-74
2021/08/22 02:47:25;;;;;;;13.70;9.83;;;;;;;13.94;100.00;100795.19;5093660;28;20236;-74
2021/08/22 02:49:51;;;;;;;12.03;9.00;;;;;;;13.94;100.00;100806.50;5086935;28;20666;-74
2021/08/22 02:52:17;;;;;;;11.73;9.50;;;;;;;13.96;100.00;100801.22;5089492;28;20592;-74
2021/08/22 02:54:44;;;;;;;12.37;8.60;;;;;;;13.97;100.00;100797.69;5091451;28;20562;-74
2021/08/22 02:57:12;;;;;;;11.43;9.20;;;;;;;14.00;100.00;100800.19;5102086;28;20223;-74
2021/08/22 02:59:41;;;;;;;11.10;8.77;;;;;;;14.04;100.00;100800.94;5092860;28;20201;-74
2021/08/22 03:02:07;;;;;;;10.73;9.00;;;;;;;14.06;100.00;100802.59;5082995;28;20193;-74
2021/08/22 03:04:33;;;;;;;11.03;8.90;;;;;;;14.05;100.00;100800.84;5090470;28;20609;-74
2021/08/22 03:07:00;;;;;;;10.40;8.63;;;;;;;14.07;100.00;100795.56;5092838;28;20213;-74
2021/08/22 03:09:26;;;;;;;12.47;8.73;;;;;;;14.06;100.00;100797.34;5089882;28;20214;-74
2021/08/22 03:11:53;;;;;;;12.50;8.17;;;;;;;14.14;100.00;100797.03;5101396;28;20728;-74
2021/08/22 03:14:21;;;;;;;9.67;8.23;;;;;;;14.14;100.00;100797.91;5086771;28;20285;-74
2021/08/22 03:16:47;;;;;;;11.43;9.30;;;;;;;14.14;100.00;100797.03;5097421;28;20232;-74
2021/08/22 03:19:14;;;;;;;13.43;8.30;;;;;;;14.11;100.00;100795.41;5086240;28;20206;-74
2021/08/22 03:21:42;;;;;;;9.70;8.70;;;;;;;14.10;100.00;100808.56;5092766;28;20190;-74
2021/08/22 03:24:08;;;;;;;9.83;8.80;;;;;;;14.10;100.00;100796.28;5094789;28;20198;-74
2021/08/22 03:26:35;;;;;;;9.90;8.43;;;;;;;14.08;100.00;100799.91;5099573;28;20225;-74
2021/08/22 03:29:01;;;;;;;9.47;7.87;;;;;;;14.11;100.00;100799.78;5093507;28;20213;-74
2021/08/22 03:31:29;;;;;;;9.93;8.13;;;;;;;14.08;100.00;100799.91;5090813;28;20670;-74
2021/08/22 03:33:56;;;;;;;10.57;9.07;;;;;;;14.09;100.00;100801.59;5093668;28;20205;-74
2021/08/22 03:36:22;;;;;;;10.30;8.07;;;;;;;14.06;100.00;100799.97;5092529;28;20718;-74
2021/08/22 03:38:49;;;;;;;12.40;9.20;;;;;;;14.03;100.00;100805.31;5088560;28;20206;-74
2021/08/22 03:41:15;;;;;;;11.10;7.83;;;;;;;14.05;100.00;100800.84;5087876;28;20202;-74
2021/08/22 03:43:42;;;;;;;9.47;7.97;;;;;;;14.05;100.00;100802.63;5097814;28;20216;-74
2021/08/22 03:46:09;;;;;;;9.63;7.87;;;;;;;13.99;100.00;100806.34;5086962;28;20208;-74
2021/08/22 03:48:36;;;;;;;9.67;8.57;;;;;;;13.99;100.00;100801.09;5089612;28;20198;-74
2021/08/22 03:51:03;;;;;;;10.03;7.57;;;;;;;14.01;100.00;100807.97;5098611;28;20209;-74
2021/08/22 03:53:29;;;;;;;10.47;7.93;;;;;;;13.95;100.00;100797.75;5089354;28;20212;-74
2021/08/22 03:55:56;;;;;;;9.97;8.33;;;;;;;13.95;100.00;100792.50;5092016;28;20212;-74
2021/08/22 03:58:22;;;;;;;8.93;7.37;;;;;;;13.95;100.00;100799.53;5088650;28;20305;-74
2021/08/22 04:00:49;;;;;;;9.53;7.70;;;;;;;13.88;100.00;100796.28;5103952;28;20212;-74
2021/08/22 04:03:15;;;;;;;11.90;7.83;;;;;;;13.86;100.00;100800.72;5070734;28;20202;-74
2021/08/22 04:06:09;;;;;;;8.60;7.30;;;;;;;13.82;100.00;100796.47;5087305;28;20204;-74
2021/08/22 04:08:36;;;;;;;10.87;8.30;;;;;;;13.78;100.00;100803.59;5088309;28;20233;-74
2021/08/22 04:11:05;;;;;;;11.07;8.20;;;;;;;13.71;100.00;100799.50;5088942;28;20317;-74
2021/08/22 04:13:31;;;;;;;10.07;7.70;;;;;;;13.72;100.00;100790.75;5089642;28;20206;-74
2021/08/22 04:15:57;;;;;;;10.47;8.97;;;;;;;13.68;100.00;100799.59;5089731;28;20207;-74
2021/08/22 04:18:24;;;;;;;12.40;9.03;;;;;;;13.65;100.00;100794.50;5089568;28;20203;-74
2021/08/22 04:20:50;;;;;;;11.03;9.03;;;;;;;13.63;100.00;100798.91;5089053;28;20233;-74
2021/08/22 04:23:18;;;;;;;11.60;9.13;;;;;;;13.60;100.00;100799.88;5085329;28;20193;-74
2021/08/22 04:25:45;;;;;;;14.50;9.27;;;;;;;13.61;100.00;100803.34;5086743;28;20284;-74
2021/08/22 04:28:12;;;;;;;12.30;9.67;;;;;;;13.62;100.00;100802.47;5089962;28;20852;-74
2021/08/22 04:30:38;;;;;;;11.80;9.97;;;;;;;13.67;100.00;100805.78;5082286;28;20209;-74
2021/08/22 04:33:05;;;;;;;10.93;8.93;;;;;;;13.64;100.00;100796.25;5091726;28;20410;-74
2021/08/22 04:35:31;;;;;;;11.97;9.20;;;;;;;13.71;100.00;100798.66;5092650;28;20198;-74
2021/08/22 04:37:58;;;;;;;10.93;9.20;;;;;;;13.67;100.00;100792.66;5090509;28;20718;-74
2021/08/22 04:40:26;;;;;;;10.73;8.83;;;;;;;13.71;100.00;100796.03;5087878;28;20210;-74
2021/08/22 04:42:52;;;;;;;10.40;8.90;;;;;;;13.75;100.00;100793.22;5090628;28;20293;-74
2021/08/22 04:45:18;;;;;;;11.10;8.90;;;;;;;13.79;100.00;100786.97;5101705;28;20200;-74
2021/08/22 04:47:45;;;;;;;11.53;9.80;;;;;;;13.76;100.00;100781.00;5090287;28;20606;-74
2021/08/22 04:50:11;;;;;;;11.10;9.20;;;;;;;13.76;100.00;100773.13;5098298;28;20206;-74
2021/08/22 04:52:38;;;;;;;10.90;9.43;;;;;;;13.73;100.00;100774.09;5082863;28;20218;-74
2021/08/22 04:55:05;;;;;;;13.37;9.50;;;;;;;13.76;100.00;100779.22;5085819;28;20208;-74
2021/08/22 04:57:34;;;;;;;11.40;9.53;;;;;;;13.75;100.00;100766.16;5086418;28;20253;-74
2021/08/22 05:00:00;;;;;;;11.80;9.60;;;;;;;13.79;100.00;100768.63;5096673;28;20193;-74
2021/08/22 05:02:27;;;;;;;11.73;9.57;;;;;;;13.81;100.00;100758.94;5087556;28;20714;-74
2021/08/22 05:04:53;;;;;;;12.33;9.33;;;;;;;13.82;100.00;100750.19;5088118;28;20212;-74
2021/08/22 05:07:20;;;;;;;11.57;9.57;;;;;;;13.82;100.00;100750.19;5090621;28;20230;-74
2021/08/22 05:09:46;;;;;;;12.40;9.57;;;;;;;13.86;100.00;100755.28;5086990;28;20198;-74
2021/08/22 05:12:12;;;;;;;11.90;9.83;;;;;;;13.87;100.00;100752.63;5091315;28;20254;-74
2021/08/22 05:14:40;;;;;;;13.77;9.87;;;;;;;13.90;100.00;100763.00;5090679;28;20202;-74
2021/08/22 05:17:06;;;;;;;11.57;9.77;;;;;;;13.91;100.00;100762.09;5084689;28;20242;-74
2021/08/22 05:19:34;;;;;;;12.60;9.83;;;;;;;13.98;100.00;100760.06;5084572;28;20207;-74
2021/08/22 05:22:01;;;;;;;12.83;9.57;;;;;;;14.01;100.00;100767.81;5082768;28;20305;-74
2021/08/22 05:24:29;;;;;;;12.20;9.83;;;;;;;14.06;100.00;100750.16;5088633;28;20202;-74
2021/08/22 05:26:55;;;;;;;11.83;9.73;;;;;;;14.13;100.00;100748.16;5090434;28;20225;-74
2021/08/22 05:29:22;;;;;;;12.57;9.67;;;;;;;14.18;100.00;100752.28;5088006;28;20206;-74
2021/08/22 05:31:49;;;;;;;11.70;9.77;;;;;;;14.25;100.00;100739.81;5089407;28;20197;-74
2021/08/22 05:34:16;;;;;;;13.23;10.20;;;;;;;14.34;100.00;100746.44;5085509;28;20662;-74
2021/08/22 05:36:43;;;;;;;13.00;9.83;;;;;;;14.40;100.00;100740.94;5091158;28;20313;-74
2021/08/22 05:39:09;;;;;;;12.77;9.70;;;;;;;14.50;100.00;100744.91;5090238;28;20201;-74
2021/08/22 05:41:36;;;;;;;11.27;9.70;;;;;;;14.58;100.00;100739.38;5093058;28;20217;-74
2021/08/22 05:44:02;;;;;;;11.67;9.60;;;;;;;14.69;100.00;100744.22;5091398;28;20201;-74
2021/08/22 05:46:29;;;;;;;11.50;9.67;;;;;;;14.75;100.00;100729.03;5086739;28;20332;-74
2021/08/22 05:48:56;;;;;;;11.73;9.40;;;;;;;14.83;100.00;100735.72;5088813;28;20205;-74
2021/08/22 05:51:23;;;;;;;10.90;9.17;;;;;;;14.94;100.00;100739.63;5097344;28;20205;-74
2021/08/22 05:53:50;;;;;;;10.93;8.93;;;;;;;15.05;100.00;100748.81;5090260;28;20228;-74
2021/08/22 05:56:18;;;;;;;11.20;9.03;;;;;;;15.15;100.00;100743.09;5108842;28;20690;-74
2021/08/22 05:58:44;;;;;;;10.50;8.50;;;;;;;15.28;100.00;100745.19;5077050;28;20295;-74
2021/08/22 06:01:10;;;;;;;9.47;8.47;;;;;;;15.33;99.01;100749.31;5090392;28;20203;-74
2021/08/22 06:03:37;;;;;;;10.10;8.33;;;;;;;15.44;99.11;100748.00;5087313;28;20184;-74
2021/08/22 06:06:07;;;;;;;10.13;8.23;;;;;;;15.54;98.99;100741.41;5084749;28;20251;-74
2021/08/22 06:08:34;;;;;;;11.20;8.13;;;;;;;15.66;98.17;100745.25;5088582;28;20205;-74
2021/08/22 06:11:00;;;;;;;9.63;7.73;;;;;;;15.85;97.60;100750.56;5093911;28;20211;-74
2021/08/22 06:13:26;;;;;;;9.77;8.37;;;;;;;16.05;96.78;100761.00;5095881;28;20230;-74
2021/08/22 06:15:53;;;;;;;10.63;7.53;;;;;;;16.22;94.16;100748.84;5087575;28;20213;-74
2021/08/22 06:18:20;;;;;;;11.60;8.27;;;;;;;16.46;94.15;100745.03;5093684;28;20241;-74
2021/08/22 06:20:46;;;;;;;8.97;7.47;;;;;;;16.67;91.57;100750.13;5093137;28;20274;-74
2021/08/22 06:23:14;;;;;;;7.57;6.77;;;;;;;16.89;91.44;100755.22;5091543;28;20206;-74
2021/08/22 06:25:40;;;;;;;8.97;7.20;;;;;;;17.09;90.54;100769.16;5091355;28;20583;-74
2021/08/22 06:28:07;;;;;;;8.50;6.77;;;;;;;17.21;90.00;100766.75;5089248;28;20222;-74
2021/08/22 06:30:33;;;;;;;8.63;7.00;;;;;;;17.32;86.85;100758.28;5086983;28;20232;-74
2021/08/22 06:32:59;;;;;;;10.10;6.83;;;;;;;17.37;85.39;100761.53;5091114;28;20790;-74
2021/08/22 06:35:26;;;;;;;8.67;6.37;;;;;;;17.45;85.25;100753.25;5087878;28;20577;-74
2021/08/22 06:37:52;;;;;;;7.67;6.23;;;;;;;17.48;85.39;100753.06;5090752;28;20230;-74
2021/08/22 06:40:20;;;;;;;8.23;6.70;;;;;;;17.59;83.96;100753.34;5071025;28;20206;-74
2021/08/22 06:42:47;;;;;;;9.77;6.80;;;;;;;17.69;84.38;100755.50;5090956;28;20222;-74
2021/08/22 06:45:15;;;;;;;8.20;6.57;;;;;;;17.77;83.43;100756.78;5093422;28;20659;-74
2021/08/22 06:47:41;;;;;;;7.20;5.80;;;;;;;17.84;82.83;100761.72;5081197;28;20279;-74
2021/08/22 06:50:09;;;;;;;7.83;6.43;;;;;;;17.93;82.51;100761.25;5096392;28;20219;-74
2021/08/22 06:52:35;;;;;;;7.43;6.10;;;;;;;18.03;83.17;100766.88;5092927;28;20222;-74
2021/08/22 06:55:01;;;;;;;8.43;5.90;;;;;;;18.11;82.27;100762.88;5097430;28;20313;-74
2021/08/22 06:57:29;;;;;;;6.97;5.87;;;;;;;18.19;81.68;100749.25;5093863;28;20227;-74
2021/08/22 06:59:55;;;;;;;7.60;6.47;;;;;;;18.26;81.24;100761.19;5089330;28;20543;-74
2021/08/22 07:02:22;;;;;;;9.97;5.97;;;;;;;18.40;81.37;100754.25;5089020;28;20815;-75
2021/08/22 07:04:48;;;;;;;7.53;6.03;;;;;;;18.48;79.99;100758.16;5087200;28;20214;-75
2021/08/22 07:07:15;;;;;;;8.37;6.03;;;;;;;18.62;80.60;100746.81;5090023;28;20663;-74
2021/08/22 07:09:42;;;;;;;5.83;5.23;;;;;;;18.76;80.35;100750.44;5085602;28;20194;-74
2021/08/22 07:12:09;;;;;;;7.17;5.97;;;;;;;18.86;79.31;100749.84;5089590;28;20233;-74
2021/08/22 07:14:37;;;;;;;7.30;6.10;;;;;;;18.93;78.80;100747.69;5089077;28;20248;-74
2021/08/22 07:17:03;;;;;;;6.30;5.50;;;;;;;18.98;77.99;100745.63;5096891;28;20243;-74
2021/08/22 07:19:30;;;;;;;5.80;5.20;;;;;;;19.07;78.47;100749.53;5089565;28;20605;-74
2021/08/22 07:21:56;;;;;;;6.07;5.47;;;;;;;19.14;77.61;100755.25;5087435;28;20202;-74
2021/08/22 07:24:23;;;;;;;8.33;5.43;;;;;;;19.22;75.98;100764.44;5069987;28;20698;-74
2021/08/22 07:26:49;;;;;;;8.57;5.57;;;;;;;19.35;75.74;100756.63;5090349;28;20308;-74
2021/08/22 07:29:15;;;;;;;6.27;4.83;;;;;;;19.48;75.82;100752.28;5087545;28;20666;-74
2021/08/22 07:31:43;;;;;;;5.20;4.70;;;;;;;19.62;75.94;100745.31;5085802;28;20206;-74
2021/08/22 07:34:09;;;;;;;7.07;5.57;;;;;;;19.75;75.97;100746.28;5083077;28;20291;-74
2021/08/22 07:36:36;;;;;;;7.43;5.43;;;;;;;19.86;75.35;100753.53;5087780;28;20234;-74
2021/08/22 07:39:02;;;;;;;6.13;5.40;;;;;;;19.97;72.90;100758.97;5091840;28;20205;-74
2021/08/22 07:41:29;;;;;;;8.47;5.50;;;;;;;20.08;73.18;100755.66;5086392;28;20474;-74
2021/08/22 07:43:55;;;;;;;6.20;4.70;;;;;;;20.19;72.42;100761.13;5088196;28;20268;-75
2021/08/22 07:46:22;;;;;;;6.80;4.83;;;;;;;20.33;72.58;100765.50;5088480;28;20230;-74
2021/08/22 07:48:49;;;;;;;5.30;4.80;;;;;;;20.49;70.07;100769.81;5088370;28;20569;-74
2021/08/22 07:51:16;;;;;;;6.07;5.17;;;;;;;20.71;71.01;100764.81;5084873;28;20564;-74
2021/08/22 07:53:42;;;;;;;7.47;6.77;;;;;;;20.98;71.60;100764.78;5073131;28;20224;-74
2021/08/22 07:56:08;;;;;;;5.83;4.67;;;;;;;21.25;70.10;100769.16;5086081;28;20204;-74
2021/08/22 07:58:35;;;;;;;6.97;4.60;;;;;;;21.37;66.78;100780.69;5085036;28;20236;-75
2021/08/22 08:01:01;;;;;;;4.30;3.90;;;;;;;21.45;66.86;100778.38;5087947;28;20210;-74
2021/08/22 08:03:28;;;;;;;5.30;4.40;;;;;;;21.63;67.76;100775.44;5085554;28;20208;-74
2021/08/22 08:05:55;;;;;;;4.97;4.30;;;;;;;21.70;67.12;100777.53;5084491;28;20209;-75
2021/08/22 08:08:23;;;;;;;4.40;4.00;;;;;;;21.68;66.14;100770.66;5081228;28;20194;-74
2021/08/22 08:10:49;;;;;;;5.10;4.60;;;;;;;21.75;65.80;100769.25;5088870;28;20209;-74
2021/08/22 08:13:16;;;;;;;5.17;4.63;;;;;;;21.84;66.92;100770.41;5086256;28;20214;-74
2021/08/22 08:15:43;;;;;;;5.83;4.13;;;;;;;21.80;66.54;100771.59;5080359;28;20202;-74
2021/08/22 08:18:10;;;;;;;6.17;4.00;;;;;;;21.77;64.20;100783.25;5081577;28;20229;-74
2021/08/22 08:20:37;;;;;;;4.22;3.67;;;;;;;21.80;65.58;100772.44;5085590;28;20200;-74
2021/08/22 08:23:05;;;;;;;6.97;3.88;;;;;;;21.82;65.39;100770.50;5086321;28;20228;-74
2021/08/22 08:25:32;;;;;;;5.57;3.72;;;;;;;21.90;65.33;100767.34;5081549;28;20712;-74
2021/08/22 08:27:58;;;;;;;4.95;4.28;;;;;;;21.91;65.52;100761.03;5074668;28;20590;-75
2021/08/22 08:30:25;;;;;;;4.40;3.35;;;;;;;21.86;64.05;100760.53;5086714;28;20218;-75
2021/08/22 08:32:51;;;;;;;4.32;3.55;;;;;;;21.88;64.84;100754.16;5094614;28;20698;-74
2021/08/22 08:35:18;;;;;;;4.05;3.65;;;;;;;21.84;64.68;100754.47;5086229;28;20256;-75
2021/08/22 08:37:44;;;;;;;4.47;3.78;;;;;;;21.87;65.08;100757.75;5086914;28;20225;-74
2021/08/22 08:40:13;;;;;;;4.05;3.65;;;;;;;21.91;65.73;100764.53;5085483;28;20201;-74
2021/08/22 08:42:40;;;;;;;3.97;3.60;;;;;;;21.85;66.89;100766.81;5084311;28;20194;-74
2021/08/22 08:45:11;;;;;;;3.50;3.20;;;;;;;21.86;66.61;100768.50;5097276;28;20205;-74
2021/08/22 08:47:41;;;;;;;5.30;3.88;;;;;;;21.92;67.93;100768.06;5072613;28;20221;-75
2021/08/22 08:50:12;;;;;;;4.93;4.05;;;;;;;22.17;67.04;100764.47;5083965;28;20254;-74
2021/08/22 08:52:44;;;;;;;4.65;3.63;;;;;;;22.35;66.04;100754.34;5081904;28;20645;-75
2021/08/22 08:55:17;;;;;;;5.55;4.07;;;;;;;22.54;65.54;100761.81;5082229;28;20216;-74
2021/08/22 08:57:43;;;;;;;4.63;3.78;;;;;;;22.76;65.40;100755.75;5085596;28;20228;-74
2021/08/22 09:00:11;;;;;;;4.20;3.80;;;;;;;22.99;64.04;100758.44;5083915;28;20202;-74
2021/08/22 09:02:38;;;;;;;4.63;3.60;;;;;;;23.15;64.29;100758.16;5083155;28;20204;-74
2021/08/22 09:05:36;;;;;;;5.55;3.70;;;;;;;23.32;63.58;100757.69;5086398;28;20200;-74
2021/08/22 09:08:34;;;;;;;4.50;3.80;;;;;;;23.57;64.40;100761.06;5056048;28;20310;-75
2021/08/22 09:11:36;;;;;;;4.40;3.58;;;;;;;23.68;61.29;100763.75;5083997;28;20212;-75
2021/08/22 09:14:35;;;;;;;4.47;3.60;;;;;;;23.91;61.77;100758.44;5084125;28;20224;-74
2021/08/22 09:17:40;;;;;;;6.22;3.35;;;;;;;23.97;60.37;100763.25;5079844;28;20316;-74
2021/08/22 09:20:45;;;;;;;3.55;3.20;;;;;;;24.02;61.47;100760.25;5084307;28;20662;-72
2021/08/22 09:23:51;;;;;;;3.97;3.42;;;;;;;23.80;62.18;100753.97;5082152;28;21012;-72
2021/08/22 09:27:06;;;;;;;4.70;3.67;;;;;;;23.91;61.57;100751.28;5081255;28;20619;-72
2021/08/22 09:30:18;;;;;;;3.55;3.08;;;;;;;24.01;62.04;100743.44;5086503;28;20224;-72
2021/08/22 09:33:34;;;;;;;3.78;3.40;;;;;;;24.22;61.46;100751.50;5068838;28;20479;-72
2021/08/22 09:36:52;;;;;;;3.33;3.03;;;;;;;24.41;60.93;100748.13;5082405;28;20196;-72
2021/08/22 09:39:58;;;;;;;3.65;3.17;;;;;;;24.63;60.06;100752.56;5085945;28;20211;-73
2021/08/22 09:43:12;;;;;;;3.85;3.30;;;;;;;25.01;58.67;100747.63;5067708;28;20212;-72
2021/08/22 09:46:16;;;;;;;3.80;3.10;;;;;;;25.09;58.32;100748.66;5068481;28;20225;-72
2021/08/22 09:49:29;;;;;;;4.43;3.65;;;;;;;25.11;59.41;100738.72;5078608;28;20416;-73
2021/08/22 09:52:39;;;;;;;3.70;3.20;;;;;;;25.04;61.77;100740.22;5082439;28;20198;-72
2021/08/22 09:55:50;;;;;;;4.03;3.03;;;;;;;25.07;59.38;100739.97;5083257;28;20244;-72
2021/08/22 09:58:55;;;;;;;3.30;2.95;;;;;;;25.01;59.22;100744.97;5043379;28;20244;-72
2021/08/22 10:01:58;;;;;;;5.28;3.10;;;;;;;25.12;58.88;100747.59;5078425;28;20205;-72
2021/08/22 10:05:06;;;;;;;5.55;3.17;;;;;;;25.19;59.61;100745.22;5085795;28;20562;-72
2021/08/22 10:07:50;;;;;;;3.65;3.25;;;;;;;25.12;59.58;100740.41;5084824;28;20320;-72
2021/08/22 10:10:19;;;;;;;3.78;3.20;;;;;;;25.14;59.80;100737.63;5079537;28;20209;-72
2021/08/22 10:12:45;;;;;;;4.90;3.20;;;;;;;25.10;59.16;100733.50;5083833;28;20289;-72
2021/08/22 10:15:16;;;;;;;3.53;3.22;;;;;;;25.05;59.83;100730.41;5084024;28;20682;-72
2021/08/22 10:17:47;;;;;;;3.80;3.17;;;;;;;25.17;60.17;100731.16;5085043;28;20236;-72
2021/08/22 10:20:14;;;;;;;3.42;3.13;;;;;;;25.27;62.18;100724.91;5084203;28;20210;-72
2021/08/22 10:22:40;;;;;;;3.85;3.42;;;;;;;25.31;60.29;100729.03;5089662;28;20205;-72
2021/08/22 10:25:09;;;;;;;4.55;3.05;;;;;;;25.51;60.52;100721.94;5088804;28;20205;-73
2021/08/22 10:27:52;;;;;;;3.33;3.03;;;;;;;25.51;60.33;100723.78;5086832;28;20214;-72
2021/08/22 10:30:26;;;;;;;3.35;3.05;;;;;;;25.46;59.66;100724.16;5081977;28;20615;-72
2021/08/22 10:33:14;;;;;;;5.07;3.38;;;;;;;25.67;60.28;100718.75;5084611;28;20209;-72
2021/08/22 10:35:41;;;;;;;3.42;3.13;;;;;;;25.49;59.32;100710.56;5089329;28;20229;-72
2021/08/22 10:38:28;;;;;;;3.30;2.92;;;;;;;25.49;58.49;100715.06;5088077;28;20275;-72
2021/08/22 10:40:56;;;;;;;4.07;3.47;;;;;;;25.59;59.37;100712.41;5085254;28;20563;-72
2021/08/22 10:43:41;;;;;;;3.78;3.42;;;;;;;25.62;59.96;100718.31;5089987;28;20247;-72
2021/08/22 10:46:09;;;;;;;3.35;3.00;;;;;;;25.65;60.05;100710.06;5077811;28;20639;-72
2021/08/22 10:48:54;;;;;;;3.88;3.47;;;;;;;25.78;60.23;100709.78;5087066;28;20561;-72
2021/08/22 10:51:21;;;;;;;3.75;3.38;;;;;;;25.67;59.48;100720.59;5085004;28;20198;-72
2021/08/22 10:53:54;;;;;;;3.42;3.13;;;;;;;25.53;58.93;100727.16;5091904;28;20229;-73
2021/08/22 10:56:39;;;;;;;3.80;3.50;;;;;;;25.52;59.74;100728.13;5084895;28;20234;-72
2021/08/22 10:59:08;;;;;;;4.15;3.60;;;;;;;25.50;59.52;100722.06;5089418;28;20217;-72
2021/08/22 11:01:36;;;;;;;4.00;3.60;;;;;;;25.46;59.51;100720.66;5069504;28;20263;-72
2021/08/22 11:04:11;;;;;;;3.88;3.35;;;;;;;25.36;59.96;100723.28;5084927;28;20197;-72
2021/08/22 11:06:52;;;;;;;3.83;3.42;;;;;;;25.36;60.13;100723.28;5088429;28;20228;-72
2021/08/22 11:09:33;;;;;;;4.20;3.42;;;;;;;25.38;59.43;100729.34;5085257;28;20217;-72
2021/08/22 11:12:00;;;;;;;4.10;3.70;;;;;;;25.24;59.65;100724.31;5087997;28;20206;-72
2021/08/22 11:14:26;;;;;;;3.88;3.35;;;;;;;25.22;59.64;100726.28;5088049;28;20229;-72
2021/08/22 11:16:53;;;;;;;4.07;3.67;;;;;;;25.19;59.57;100723.88;5085297;28;20477;-72
2021/08/22 11:19:24;;;;;;;4.15;3.75;;;;;;;24.98;60.60;100727.41;5080085;28;20216;-72
2021/08/22 11:21:50;;;;;;;4.20;3.63;;;;;;;24.88;59.70;100732.69;5085505;28;20202;-72
2021/08/22 11:24:18;;;;;;;4.10;3.67;;;;;;;24.92;59.80;100736.78;5087056;28;20194;-73
2021/08/22 11:26:44;;;;;;;4.72;3.50;;;;;;;24.87;60.11;100736.34;5084678;28;20628;-72
2021/08/22 11:29:12;;;;;;;6.45;3.63;;;;;;;24.95;59.67;100747.19;5088447;28;20197;-75
2021/08/22 11:31:39;;;;;;;3.80;3.40;;;;;;;25.00;58.57;100744.13;5085796;28;20690;-76
2021/08/22 11:34:13;;;;;;;3.70;3.38;;;;;;;25.00;58.48;100746.78;5083996;28;20213;-75
2021/08/22 11:36:41;;;;;;;3.92;3.53;;;;;;;24.96;58.13;100742.72;5084007;28;20221;-75